| time (UTC) | temp C | wind direction | speed KPH | gust KPH | rain 1hr cm | rain 24hr cm | rain mn cm | humidity % | barometer mb |
| 20260503200037 | 13 | 164 | 1.6 | 9.7 | 0.00 | 0.00 | 0.00 | 68 | 1013.2 |
| 20260503195516 | 13 | 249 | 3.2 | 9.7 | 0.00 | 0.00 | 0.00 | 68 | 1013.1 |
| 20260503195017 | 13 | 311 | 4.8 | 14.5 | 0.00 | 0.00 | 0.00 | 68 | 1013.1 |
| 20260503194542 | 13 | 224 | 1.6 | 14.5 | 0.00 | 0.00 | 0.00 | 68 | 1013.1 |
| 20260503194021 | 13 | 253 | 3.2 | 8.0 | 0.00 | 0.00 | 0.00 | 68 | 1013.1 |
| 20260503193521 | 13 | 280 | 1.6 | 9.7 | 0.00 | 0.00 | 0.00 | 69 | 1013.2 |
| 20260503193046 | 13 | 215 | 3.2 | 9.7 | 0.00 | 0.00 | 0.00 | 69 | 1013.2 |
| 20260503192520 | 13 | 314 | 1.6 | 8.0 | 0.00 | 0.00 | 0.00 | 69 | 1013.3 |
| 20260503192020 | 13 | 271 | 1.6 | 8.0 | 0.00 | 0.00 | 0.00 | 69 | 1013.2 |
| 20260503191535 | 13 | 0 | 1.6 | 8.0 | 0.00 | 0.00 | 0.00 | 70 | 1013.2 |
| 20260503191019 | 13 | 263 | 1.6 | 6.4 | 0.00 | 0.00 | 0.00 | 70 | 1013.1 |
| 20260503190521 | 13 | 192 | 1.6 | 6.4 | 0.00 | 0.00 | 0.00 | 71 | 1012.9 |
| 20260503190040 | 13 | 263 | 3.2 | 6.4 | 0.00 | 0.00 | 0.00 | 71 | 1012.9 |
| 20260503185519 | 13 | 330 | 1.6 | 6.4 | 0.00 | 0.00 | 0.00 | 72 | 1012.9 |
| 20260503185019 | 14 | 0 | 0.0 | 4.8 | 0.00 | 0.00 | 0.00 | 73 | 1012.8 |
| 20260503184551 | 13 | 0 | 0.0 | 3.2 | 0.00 | 0.00 | 0.00 | 74 | 1012.9 |
| 20260503184020 | 14 | 0 | 0.0 | 3.2 | 0.00 | 0.00 | 0.00 | 75 | 1012.7 |
| 20260503183521 | 14 | 0 | 0.0 | 3.2 | 0.00 | 0.00 | 0.00 | 74 | 1012.8 |
| 20260503183057 | 14 | 0 | 0.0 | 3.2 | 0.00 | 0.00 | 0.00 | 74 | 1012.7 |
| 20260503182518 | 14 | 0 | 0.0 | 3.2 | 0.00 | 0.00 | 0.00 | 74 | 1012.6 |
| 20260503182018 | 14 | 325 | 0.0 | 3.2 | 0.00 | 0.00 | 0.00 | 73 | 1012.6 |
| 20260503181537 | 14 | 0 | 0.0 | 3.2 | 0.00 | 0.00 | 0.00 | 72 | 1012.7 |
| 20260503181019 | 15 | 0 | 0.0 | 3.2 | 0.00 | 0.00 | 0.00 | 72 | 1012.6 |
| 20260503180521 | 15 | 262 | 0.0 | 4.8 | 0.00 | 0.00 | 0.00 | 72 | 1012.5 |
| 20260503180043 | 15 | 227 | 0.0 | 9.7 | 0.00 | 0.00 | 0.00 | 72 | 1012.4 |
| 20260503175522 | 15 | 258 | 0.0 | 9.7 | 0.00 | 0.00 | 0.00 | 71 | 1012.5 |
| 20260503175018 | 15 | 0 | 1.6 | 9.7 | 0.00 | 0.00 | 0.00 | 71 | 1012.3 |
| 20260503174536 | 15 | 284 | 1.6 | 6.4 | 0.00 | 0.00 | 0.00 | 71 | 1012.5 |
| 20260503174020 | 15 | 302 | 1.6 | 6.4 | 0.00 | 0.00 | 0.00 | 70 | 1012.5 |
| 20260503173520 | 15 | 0 | 0.0 | 6.4 | 0.00 | 0.00 | 0.00 | 70 | 1012.5 |
| 20260503173106 | 15 | 0 | 0.0 | 9.7 | 0.00 | 0.00 | 0.00 | 70 | 1012.5 |
| 20260503172518 | 15 | 249 | 3.2 | 9.7 | 0.00 | 0.00 | 0.00 | 69 | 1012.7 |
| 20260503172018 | 15 | 271 | 1.6 | 9.7 | 0.00 | 0.00 | 0.00 | 68 | 1012.5 |
| 20260503171541 | 15 | 248 | 3.2 | 16.1 | 0.00 | 0.00 | 0.00 | 67 | 1012.6 |
| 20260503171019 | 16 | 0 | 3.2 | 16.1 | 0.00 | 0.00 | 0.00 | 66 | 1012.7 |
| 20260503170520 | 16 | 280 | 4.8 | 16.1 | 0.00 | 0.00 | 0.00 | 64 | 1012.8 |
| 20260503150518 | 19 | 244 | 4.8 | 14.5 | 0.00 | 0.00 | 0.00 | 48 | 1012.1 |
| 20260503131020 | 20 | 129 | 3.2 | 14.5 | 0.00 | 0.00 | 0.00 | 42 | 1012.4 |
| 20260503130519 | 19 | 271 | 4.8 | 8.0 | 0.00 | 0.00 | 0.00 | 43 | 1012.7 |
| 20260503110519 | 21 | 136 | 8.0 | 27.4 | 0.00 | 0.00 | 0.00 | 40 | 1012.8 |
| 20260503081539 | 18 | 205 | 3.2 | 14.5 | 0.00 | 0.00 | 0.00 | 46 | 1013.6 |
| 20260503081019 | 18 | 124 | 3.2 | 14.5 | 0.00 | 0.00 | 0.00 | 45 | 1013.7 |
| 20260503080518 | 17 | 271 | 3.2 | 14.5 | 0.00 | 0.00 | 0.00 | 49 | 1013.9 |
| 20260503072517 | 17 | 155 | 4.8 | 14.5 | 0.00 | 0.00 | 0.00 | 44 | 1013.5 |
| 20260503072017 | 17 | 190 | 1.6 | 11.3 | 0.00 | 0.00 | 0.00 | 46 | 1013.5 |
| 20260503071539 | 16 | 263 | 3.2 | 11.3 | 0.00 | 0.00 | 0.00 | 45 | 1013.5 |
| 20260503071018 | 16 | 215 | 3.2 | 16.1 | 0.00 | 0.00 | 0.00 | 46 | 1013.4 |
| 20260503070518 | 16 | 203 | 4.8 | 16.1 | 0.00 | 0.00 | 0.00 | 45 | 1013.3 |
| 20260503055018 | 16 | 184 | 3.2 | 11.3 | 0.00 | 0.00 | 0.00 | 49 | 1013.1 |
| 20260503054538 | 15 | 169 | 1.6 | 9.7 | 0.00 | 0.00 | 0.00 | 50 | 1013.1 |
| 20260503054021 | 15 | 201 | 1.6 | 9.7 | 0.00 | 0.00 | 0.00 | 49 | 1013.1 |
| 20260503053517 | 15 | 163 | 3.2 | 9.7 | 0.00 | 0.00 | 0.00 | 49 | 1012.8 |
| 20260503053037 | 15 | 271 | 3.2 | 12.9 | 0.00 | 0.00 | 0.00 | 49 | 1013.0 |
| 20260503052521 | 15 | 236 | 1.6 | 12.9 | 0.00 | 0.00 | 0.00 | 48 | 1012.9 |
| 20260503052017 | 15 | 271 | 3.2 | 12.9 | 0.00 | 0.00 | 0.00 | 48 | 1012.9 |
| 20260503051533 | 15 | 271 | 3.2 | 19.3 | 0.00 | 0.00 | 0.00 | 50 | 1012.8 |
| 20260503051019 | 15 | 271 | 3.2 | 19.3 | 0.00 | 0.00 | 0.00 | 51 | 1012.8 |
| 20260503050519 | 15 | 271 | 4.8 | 14.5 | 0.00 | 0.00 | 0.00 | 53 | 1012.9 |
| 20260503050038 | 15 | 286 | 3.2 | 9.7 | 0.00 | 0.00 | 0.00 | 55 | 1012.9 |
| 20260503045517 | 14 | 165 | 3.2 | 11.3 | 0.00 | 0.00 | 0.00 | 57 | 1012.9 |
| 20260503045018 | 13 | 228 | 1.6 | 11.3 | 0.00 | 0.00 | 0.00 | 61 | 1012.9 |
| 20260503044538 | 12 | 155 | 3.2 | 11.3 | 0.00 | 0.00 | 0.00 | 65 | 1013.2 |
| 20260503044017 | 11 | 209 | 1.6 | 9.7 | 0.00 | 0.00 | 0.00 | 70 | 1013.1 |
| 20260503043517 | 11 | 0 | 0.0 | 3.2 | 0.00 | 0.00 | 0.00 | 70 | 1013.0 |
| 20260503043041 | 11 | 0 | 0.0 | 1.6 | 0.00 | 0.00 | 0.00 | 70 | 1013.0 |
| 20260503042517 | 11 | 0 | 0.0 | 1.6 | 0.00 | 0.00 | 0.00 | 69 | 1013.0 |
| 20260503042019 | 11 | 0 | 0.0 | 3.2 | 0.00 | 0.00 | 0.00 | 68 | 1012.9 |
| 20260503041537 | 11 | 0 | 0.0 | 3.2 | 0.00 | 0.00 | 0.00 | 67 | 1012.9 |
| 20260503041022 | 11 | 330 | 0.0 | 1.6 | 0.00 | 0.00 | 0.00 | 67 | 1012.9 |
| 20260503040517 | 11 | 0 | 0.0 | 1.6 | 0.00 | 0.00 | 0.00 | 66 | 1012.9 |
| 20260503040046 | 12 | 0 | 0.0 | 1.6 | 0.00 | 0.00 | 0.00 | 65 | 1013.1 |
| 20260503035517 | 12 | 0 | 0.0 | 1.6 | 0.00 | 0.00 | 0.00 | 64 | 1013.1 |
| 20260503035017 | 12 | 0 | 0.0 | 0.0 | 0.00 | 0.00 | 0.00 | 62 | 1013.1 |
| 20260503034549 | 13 | 0 | 0.0 | 3.2 | 0.00 | 0.00 | 0.00 | 60 | 1013.1 |
| 20260503034022 | 13 | 0 | 0.0 | 3.2 | 0.00 | 0.00 | 0.00 | 59 | 1013.1 |
| 20260503033516 | 13 | 0 | 0.0 | 6.4 | 0.00 | 0.00 | 0.00 | 58 | 1013.0 |
| 20260503033043 | 13 | 0 | 0.0 | 6.4 | 0.00 | 0.00 | 0.00 | 58 | 1013.1 |
| 20260503032518 | 13 | 0 | 0.0 | 4.8 | 0.00 | 0.00 | 0.00 | 57 | 1013.4 |
| 20260503032017 | 13 | 0 | 0.0 | 4.8 | 0.00 | 0.00 | 0.00 | 57 | 1013.3 |
| 20260503031541 | 13 | 0 | 0.0 | 3.2 | 0.00 | 0.00 | 0.00 | 57 | 1013.3 |
| 20260503031018 | 14 | 0 | 0.0 | 3.2 | 0.00 | 0.00 | 0.00 | 55 | 1013.2 |
| 20260503030518 | 14 | 0 | 0.0 | 3.2 | 0.00 | 0.00 | 0.00 | 55 | 1013.2 |
| 20260503030047 | 15 | 0 | 0.0 | 4.8 | 0.00 | 0.00 | 0.00 | 53 | 1013.2 |
| 20260503025517 | 15 | 175 | 0.0 | 6.4 | 0.00 | 0.00 | 0.00 | 53 | 1013.4 |
| 20260503025018 | 15 | 253 | 0.0 | 6.4 | 0.00 | 0.00 | 0.00 | 53 | 1013.3 |
| 20260503024536 | 15 | 143 | 1.6 | 6.4 | 0.00 | 0.00 | 0.00 | 52 | 1013.3 |
| 20260503024017 | 15 | 212 | 1.6 | 6.4 | 0.00 | 0.00 | 0.00 | 52 | 1013.4 |
| 20260503023518 | 15 | 220 | 1.6 | 12.9 | 0.00 | 0.00 | 0.00 | 52 | 1013.4 |
| 20260503023034 | 15 | 271 | 1.6 | 12.9 | 0.00 | 0.00 | 0.00 | 52 | 1013.5 |
| 20260503022517 | 15 | 164 | 1.6 | 12.9 | 0.00 | 0.00 | 0.00 | 52 | 1013.5 |
| 20260503022019 | 14 | 240 | 1.6 | 6.4 | 0.00 | 0.00 | 0.00 | 53 | 1013.5 |
| 20260503021543 | 14 | 260 | 0.0 | 4.8 | 0.00 | 0.00 | 0.00 | 53 | 1013.6 |
| 20260503021019 | 14 | 0 | 1.6 | 12.9 | 0.00 | 0.00 | 0.00 | 53 | 1013.6 |
| 20260503020519 | 14 | 271 | 1.6 | 12.9 | 0.00 | 0.00 | 0.00 | 53 | 1013.6 |
| 20260503020041 | 14 | 0 | 0.0 | 8.0 | 0.00 | 0.00 | 0.00 | 53 | 1013.5 |
| 20260503015518 | 14 | 271 | 1.6 | 4.8 | 0.00 | 0.00 | 0.00 | 52 | 1013.6 |
| 20260503015017 | 15 | 271 | 1.6 | 4.8 | 0.00 | 0.00 | 0.00 | 50 | 1013.5 |
| 20260503014540 | 15 | 271 | 1.6 | 4.8 | 0.00 | 0.00 | 0.00 | 50 | 1013.6 |
| 20260503014017 | 15 | 0 | 0.0 | 8.0 | 0.00 | 0.00 | 0.00 | 49 | 1013.7 |
| 20260503013517 | 15 | 0 | 0.0 | 8.0 | 0.00 | 0.00 | 0.00 | 49 | 1013.7 |
| 20260503013037 | 15 | 271 | 1.6 | 8.0 | 0.00 | 0.00 | 0.00 | 49 | 1013.7 |
| 20260503012518 | 15 | 271 | 1.6 | 8.0 | 0.00 | 0.00 | 0.00 | 49 | 1013.7 |
| 20260503012023 | 15 | 271 | 1.6 | 9.7 | 0.00 | 0.00 | 0.00 | 50 | 1013.7 |
| 20260503011537 | 15 | 0 | 1.6 | 9.7 | 0.00 | 0.00 | 0.00 | 50 | 1013.7 |
| 20260503011017 | 15 | 271 | 3.2 | 9.7 | 0.00 | 0.00 | 0.00 | 50 | 1013.7 |
| 20260503010518 | 15 | 271 | 1.6 | 8.0 | 0.00 | 0.00 | 0.00 | 51 | 1013.9 |
| 20260503010041 | 14 | 271 | 3.2 | 8.0 | 0.00 | 0.00 | 0.00 | 52 | 1013.9 |
| 20260503005521 | 14 | 0 | 1.6 | 6.4 | 0.00 | 0.00 | 0.00 | 54 | 1013.9 |
| 20260503005021 | 14 | 271 | 1.6 | 4.8 | 0.00 | 0.00 | 0.00 | 55 | 1014.0 |
| 20260503004538 | 14 | 271 | 0.0 | 4.8 | 0.00 | 0.00 | 0.00 | 55 | 1014.0 |
| 20260503004025 | 14 | 271 | 1.6 | 4.8 | 0.00 | 0.00 | 0.00 | 54 | 1014.1 |
| 20260503003518 | 13 | 271 | 0.0 | 4.8 | 0.00 | 0.00 | 0.00 | 56 | 1014.1 |
| 20260503003038 | 13 | 0 | 0.0 | 4.8 | 0.00 | 0.00 | 0.00 | 57 | 1014.1 |
| 20260503002518 | 13 | 271 | 0.0 | 4.8 | 0.00 | 0.00 | 0.00 | 59 | 1014.2 |
| 20260503002018 | 13 | 271 | 0.0 | 4.8 | 0.00 | 0.00 | 0.00 | 60 | 1014.2 |
| 20260503001538 | 13 | 0 | 0.0 | 3.2 | 0.00 | 0.00 | 0.00 | 59 | 1014.3 |
| 20260503001020 | 14 | 0 | 0.0 | 4.8 | 0.00 | 0.00 | 0.00 | 58 | 1014.3 |
| 20260503000519 | 14 | 0 | 0.0 | 6.4 | 0.00 | 0.00 | 0.00 | 55 | 1014.4 |
| 20260503000036 | 14 | 0 | 0.0 | 6.4 | 0.00 | 0.00 | 0.00 | 57 | 1014.4 |
| 20260502235519 | 15 | 271 | 0.0 | 6.4 | 0.00 | 0.00 | 0.00 | 57 | 1014.5 |
| 20260502235018 | 15 | 271 | 0.0 | 4.8 | 0.00 | 0.00 | 0.00 | 56 | 1014.6 |
| 20260502234536 | 15 | 0 | 0.0 | 4.8 | 0.00 | 0.00 | 0.00 | 55 | 1014.7 |
| 20260502234018 | 15 | 0 | 0.0 | 3.2 | 0.00 | 0.00 | 0.00 | 56 | 1014.7 |
| 20260502233520 | 15 | 262 | 0.0 | 11.3 | 0.00 | 0.00 | 0.00 | 56 | 1014.9 |
| 20260502233043 | 16 | 234 | 0.0 | 11.3 | 0.00 | 0.00 | 0.00 | 55 | 1014.9 |
| 20260502232518 | 15 | 211 | 1.6 | 11.3 | 0.00 | 0.00 | 0.00 | 55 | 1014.9 |
| 20260502232021 | 15 | 247 | 0.0 | 6.4 | 0.00 | 0.00 | 0.00 | 56 | 1014.8 |
| 20260502231538 | 16 | 197 | 0.0 | 6.4 | 0.00 | 0.00 | 0.00 | 57 | 1014.7 |
| 20260502231021 | 16 | 205 | 1.6 | 6.4 | 0.00 | 0.00 | 0.00 | 57 | 1014.9 |
| 20260502230519 | 16 | 108 | 1.6 | 4.8 | 0.00 | 0.00 | 0.00 | 58 | 1014.9 |
| 20260502230036 | 16 | 138 | 0.0 | 8.0 | 0.00 | 0.00 | 0.00 | 60 | 1014.9 |
| 20260502225518 | 16 | 271 | 1.6 | 8.0 | 0.00 | 0.00 | 0.00 | 60 | 1015.1 |
| 20260502225020 | 15 | 137 | 1.6 | 4.8 | 0.00 | 0.00 | 0.00 | 61 | 1015.0 |
| 20260502224541 | 15 | 190 | 0.0 | 4.8 | 0.00 | 0.00 | 0.00 | 62 | 1014.9 |
| 20260502224018 | 15 | 217 | 0.0 | 4.8 | 0.00 | 0.00 | 0.00 | 62 | 1015.0 |
| 20260502223518 | 15 | 0 | 0.0 | 3.2 | 0.00 | 0.00 | 0.00 | 61 | 1015.0 |
| 20260502223037 | 16 | 0 | 0.0 | 3.2 | 0.00 | 0.00 | 0.00 | 60 | 1015.0 |
| 20260502222518 | 16 | 0 | 0.0 | 3.2 | 0.00 | 0.00 | 0.00 | 60 | 1014.9 |
| 20260502222018 | 16 | 0 | 0.0 | 3.2 | 0.00 | 0.00 | 0.00 | 60 | 1015.0 |
| 20260502221535 | 16 | 192 | 0.0 | 3.2 | 0.00 | 0.00 | 0.00 | 59 | 1015.0 |
| 20260502221018 | 16 | 130 | 0.0 | 6.4 | 0.00 | 0.00 | 0.00 | 59 | 1014.9 |
| 20260502220552 | 16 | 0 | 1.6 | 6.4 | 0.00 | 0.00 | 0.00 | 59 | 1014.9 |
| 20260502220043 | 16 | 0 | 0.0 | 6.4 | 0.00 | 0.00 | 0.00 | 59 | 1014.9 |
| 20260502215519 | 16 | 0 | 0.0 | 6.4 | 0.00 | 0.00 | 0.00 | 59 | 1015.0 |
| 20260502215018 | 16 | 139 | 0.0 | 6.4 | 0.00 | 0.00 | 0.00 | 59 | 1015.1 |
| 20260502214545 | 16 | 0 | 0.0 | 4.8 | 0.00 | 0.00 | 0.00 | 59 | 1015.1 |
| 20260502214027 | 16 | 0 | 0.0 | 6.4 | 0.00 | 0.00 | 0.00 | 59 | 1015.2 |
| 20260502213530 | 16 | 168 | 0.0 | 6.4 | 0.00 | 0.00 | 0.00 | 59 | 1015.2 |
| 20260502213037 | 16 | 137 | 0.0 | 6.4 | 0.00 | 0.00 | 0.00 | 59 | 1015.3 |
| 20260502212519 | 16 | 142 | 1.6 | 6.4 | 0.00 | 0.00 | 0.00 | 59 | 1015.3 |
| 20260502212020 | 16 | 143 | 1.6 | 6.4 | 0.00 | 0.00 | 0.00 | 60 | 1015.4 |
| 20260502211551 | 16 | 126 | 1.6 | 4.8 | 0.00 | 0.00 | 0.00 | 61 | 1015.4 |
| 20260502211107 | 16 | 0 | 0.0 | 3.2 | 0.00 | 0.00 | 0.00 | 61 | 1015.6 |
| 20260502210528 | 16 | 0 | 0.0 | 3.2 | 0.00 | 0.00 | 0.00 | 60 | 1015.5 |
| 20260502210036 | 16 | 0 | 0.0 | 4.8 | 0.00 | 0.00 | 0.00 | 60 | 1015.5 |
| 20260502205517 | 16 | 124 | 0.0 | 4.8 | 0.00 | 0.00 | 0.00 | 59 | 1015.5 |
| 20260502205017 | 17 | 113 | 1.6 | 4.8 | 0.00 | 0.00 | 0.00 | 59 | 1015.5 |
| 20260502204536 | 17 | 155 | 0.0 | 3.2 | 0.00 | 0.00 | 0.00 | 59 | 1015.7 |
| 20260502204017 | 17 | 0 | 0.0 | 3.2 | 0.00 | 0.00 | 0.00 | 59 | 1015.6 |
| 20260502203516 | 17 | 0 | 0.0 | 4.8 | 0.00 | 0.00 | 0.00 | 58 | 1015.7 |
| 20260502203034 | 17 | 0 | 0.0 | 6.4 | 0.00 | 0.00 | 0.00 | 58 | 1015.7 |
| 20260502202517 | 17 | 161 | 0.0 | 6.4 | 0.00 | 0.00 | 0.00 | 58 | 1015.7 |
| 20260502202018 | 17 | 203 | 0.0 | 6.4 | 0.00 | 0.00 | 0.00 | 59 | 1015.7 |
| 20260502201538 | 16 | 127 | 0.0 | 4.8 | 0.00 | 0.00 | 0.00 | 59 | 1015.6 |
| 20260502201017 | 16 | 0 | 0.0 | 1.6 | 0.00 | 0.00 | 0.00 | 59 | 1015.7 |
| 20260502200525 | 16 | 0 | 0.0 | 3.2 | 0.00 | 0.00 | 0.00 | 59 | 1015.7 |